
Distance (Route):
Temperature : 2.5°C
Humidity : 89.7%
Pressure : 0hPa| Receiver | Date | Latitude | Longitude | Direction | Speed | Altitude | Climb | Temperature | Humidity | Pressure | Voltage | Killtimer | Uptime | BKT | XDATA |
|---|---|---|---|---|---|---|---|---|---|---|---|---|---|---|---|
| LZ4TU-5 | 2026-09-06 01:04:07 | 44.40873 | 21.48542 | 102° | 60km/h | 3717m | -13.4m/s | 2.5°C | 89.7% | 0hPa | 5.6V | 00:00:00 | 00:00:00 | 00:00:00 | |
| LZ4TU-5 | 2026-09-06 01:04:03 | 44.40884 | 21.48456 | 101° | 62km/h | 3764m | -13.8m/s | 2.1°C | 91.9% | 0hPa | 5.6V | 00:00:00 | 00:00:00 | 00:00:00 | |
| LZ4TU-5 | 2026-09-06 01:03:59 | 44.40897 | 21.48347 | 99° | 62km/h | 3827m | -12.6m/s | 1.6°C | 92.9% | 0hPa | 5.6V | 00:00:00 | 00:00:00 | 00:00:00 | |
| LZ4TU-5 | 2026-09-06 01:03:53 | 44.40908 | 21.48237 | 99° | 62km/h | 3895m | -13.2m/s | 1.1°C | 92.4% | 0hPa | 5.6V | 00:00:00 | 00:00:00 | 00:00:00 | |
| LZ4TU-5 | 2026-09-06 01:03:48 | 44.40919 | 21.48127 | 98° | 62km/h | 3962m | -13.0m/s | 0.5°C | 91.6% | 0hPa | 5.6V | 00:00:00 | 00:00:00 | 00:00:00 | |
| LZ4TU-5 | 2026-09-06 01:03:43 | 44.40929 | 21.48019 | 100° | 60km/h | 4029m | -13.4m/s | -0.0°C | 90.8% | 0hPa | 5.6V | 00:00:00 | 00:00:00 | 00:00:00 | |
| LZ4TU-5 | 2026-09-06 01:03:39 | 44.40938 | 21.47936 | 99° | 58km/h | 4084m | -13.0m/s | -0.4°C | 88.1% | 0hPa | 5.6V | 00:00:00 | 00:00:00 | 00:00:00 | |
| LZ4TU-5 | 2026-09-06 01:03:34 | 44.40949 | 21.47837 | 101° | 57km/h | 4151m | -14.0m/s | -0.3°C | 87.9% | 0hPa | 5.6V | 00:00:00 | 00:00:00 | 00:00:00 | |
| LZ4TU-5 | 2026-09-06 01:03:30 | 44.40960 | 21.47758 | 103° | 57km/h | 4204m | -13.9m/s | -0.6°C | 81.8% | 0hPa | 5.6V | 00:00:00 | 00:00:00 | 00:00:00 | |
| LZ4TU-5 | 2026-09-06 01:03:25 | 44.40978 | 21.47659 | 104° | 55km/h | 4258m | -13.3m/s | -0.8°C | 79.8% | 0hPa | 5.6V | 00:00:00 | 00:00:00 | 00:00:00 | |
| LZ4TU-5 | 2026-09-06 01:03:20 | 44.40995 | 21.47565 | 105° | 55km/h | 4328m | -14.2m/s | -1.1°C | 77.6% | 0hPa | 5.6V | 00:00:00 | 00:00:00 | 00:00:00 | |
| LZ4TU-5 | 2026-09-06 01:03:16 | 44.41009 | 21.47488 | 107° | 57km/h | 4385m | -13.2m/s | -1.3°C | 74.7% | 0hPa | 5.6V | 00:00:00 | 00:00:00 | 00:00:00 | |
| LZ4TU-5 | 2026-09-06 01:03:12 | 44.41027 | 21.47409 | 109° | 60km/h | 4439m | -13.2m/s | -1.6°C | 71.4% | 0hPa | 5.6V | 00:00:00 | 00:00:00 | 00:00:00 | |
| LZ4TU-5 | 2026-09-06 01:03:07 | 44.41053 | 21.47307 | 108° | 64km/h | 4510m | -13.8m/s | -1.7°C | 63.2% | 0hPa | 5.6V | 00:00:00 | 00:00:00 | 00:00:00 | |
| LZ4TU-5 | 2026-09-06 01:03:02 | 44.41076 | 21.47201 | 107° | 64km/h | 4580m | -13.7m/s | -2.3°C | 64.2% | 0hPa | 5.6V | 00:00:00 | 00:00:00 | 00:00:00 | |
| LZ4TU-5 | 2026-09-06 01:02:58 | 44.41095 | 21.47115 | 106° | 64km/h | 4635m | -14.0m/s | -2.8°C | 65.8% | 0hPa | 5.6V | 00:00:00 | 00:00:00 | 00:00:00 | |
| LZ4TU-5 | 2026-09-06 01:02:54 | 44.41112 | 21.47031 | 105° | 62km/h | 4691m | -13.5m/s | -3.3°C | 67.5% | 0hPa | 5.6V | 00:00:00 | 00:00:00 | 00:00:00 | |
| LZ4TU-5 | 2026-09-06 01:02:49 | 44.41132 | 21.46924 | 105° | 62km/h | 4754m | -14.2m/s | -3.9°C | 69.1% | 0hPa | 5.6V | 00:00:00 | 00:00:00 | 00:00:00 | |
| LZ4TU-5 | 2026-09-06 01:02:45 | 44.41147 | 21.46839 | 105° | 60km/h | 4809m | -13.0m/s | -4.5°C | 70.0% | 0hPa | 5.6V | 00:00:00 | 00:00:00 | 00:00:00 | |
| LZ4TU-5 | 2026-09-06 01:02:41 | 44.41162 | 21.46756 | 105° | 60km/h | 4864m | -13.8m/s | -4.9°C | 70.3% | 0hPa | 5.6V | 00:00:00 | 00:00:00 | 00:00:00 | |
| LZ4TU-5 | 2026-09-06 00:58:06 | 44.43632 | 21.40678 | 133° | 89km/h | 8826m | -15.1m/s | -28.5°C | 15.5% | 0hPa | 5.6V | 00:00:00 | 00:00:00 | 00:00:00 | |
| LZ4TU-5 | 2026-09-06 00:56:29 | 44.45027 | 21.38084 | 126° | 99km/h | 10324m | -15.6m/s | -42.0°C | 34.6% | 0hPa | 5.6V | 00:00:00 | 00:00:00 | 00:00:00 | |
| LZ4TU-5 | 2026-09-06 00:56:24 | 44.45099 | 21.37941 | 127° | 99km/h | 10403m | -15.3m/s | -42.7°C | 35.2% | 0hPa | 5.6V | 00:00:00 | 00:00:00 | 00:00:00 | |
| LZ4TU-5 | 2026-09-06 00:54:09 | 44.47158 | 21.34104 | 127° | 91km/h | 12879m | -20.8m/s | -58.0°C | 14.9% | 0hPa | 5.6V | 00:00:00 | 00:00:00 | 00:00:00 | |
| LZ4TU-5 | 2026-09-06 00:54:04 | 44.47223 | 21.33980 | 124° | 84km/h | 12986m | -20.5m/s | -58.0°C | 14.0% | 0hPa | 5.6V | 00:00:00 | 00:00:00 | 00:00:00 | |
| LZ4TU-5 | 2026-09-06 00:51:48 | 44.48043 | 21.29598 | 103° | 82km/h | 16093m | -27.4m/s | -61.9°C | 0.0% | 0hPa | 5.6V | 00:00:00 | 00:00:00 | 00:00:00 | |
| LZ4TU-5 | 2026-09-06 00:51:43 | 44.48065 | 21.29457 | 104° | 82km/h | 16229m | -25.7m/s | -61.1°C | 0.0% | 0hPa | 5.6V | 00:00:00 | 00:00:00 | 00:00:00 | |
| LZ4TU-5 | 2026-09-06 00:51:35 | 44.48107 | 21.29225 | 103° | 88km/h | 16420m | -22.1m/s | -61.1°C | 0.0% | 0hPa | 5.6V | 00:00:00 | 00:00:00 | 00:00:00 | |
| LZ4TU-5 | 2026-09-06 00:51:29 | 44.48137 | 21.29045 | 110° | 86km/h | 16554m | -21.9m/s | -61.1°C | 0.0% | 0hPa | 5.6V | 00:00:00 | 00:00:00 | 00:00:00 | |
| LZ4TU-5 | 2026-09-06 00:49:52 | 44.48471 | 21.27572 | 73° | 18km/h | 19134m | -29.2m/s | -56.4°C | 0.0% | 0hPa | 5.6V | 00:00:00 | 00:00:00 | 00:00:00 | |
| LZ4TU-5 | 2026-09-06 00:49:47 | 44.48460 | 21.27530 | 82° | 31km/h | 19280m | -29.4m/s | -56.6°C | 0.0% | 0hPa | 5.6V | 00:00:00 | 00:00:00 | 00:00:00 | |
| LZ4TU-5 | 2026-09-06 00:47:54 | 44.48500 | 21.26712 | 99° | 13km/h | 22851m | -33.5m/s | -53.4°C | 0.0% | 0hPa | 5.6V | 00:00:00 | 00:00:00 | 00:00:00 | |
| LZ4TU-5 | 2026-09-06 00:47:49 | 44.48506 | 21.26695 | 129° | 11km/h | 23021m | -33.1m/s | -53.8°C | 0.0% | 0hPa | 5.6V | 00:00:00 | 00:00:00 | 00:00:00 | |
| LZ4TU-5 | 2026-09-06 00:45:41 | 44.48443 | 21.26384 | 23° | 13km/h | 27626m | -39.3m/s | -47.0°C | 0.0% | 0hPa | 5.6V | 00:00:00 | 00:00:00 | 00:00:00 | |
| LZ4TU-5 | 2026-09-06 00:45:36 | 44.48435 | 21.26374 | 151° | 7km/h | 27793m | -28.3m/s | -46.7°C | 0.0% | 0hPa | 5.6V | 00:00:00 | 00:00:00 | 00:00:00 | |
| LZ4TU-5 | 2026-09-06 00:43:40 | 44.48525 | 21.26199 | 114° | 20km/h | 30046m | 8.2m/s | -45.9°C | 0.0% | 0hPa | 5.6V | 00:00:00 | 00:00:00 | 00:00:00 | |
| LZ4TU-5 | 2026-09-06 00:43:36 | 44.48525 | 21.26151 | 65° | 26km/h | 30023m | 5.7m/s | -46.0°C | 0.0% | 0hPa | 5.6V | 00:00:00 | 00:00:00 | 00:00:00 | |
| LZ4TU-5 | 2026-09-06 00:41:52 | 44.48550 | 21.25841 | 182° | 13km/h | 29311m | 6.9m/s | -46.4°C | 0.0% | 0hPa | 5.6V | 00:00:00 | 00:00:00 | 00:00:00 | |
| LZ4TU-5 | 2026-09-06 00:41:47 | 44.48561 | 21.25830 | 99° | 7km/h | 29279m | 5.7m/s | -46.4°C | 0.0% | 0hPa | 5.6V | 00:00:00 | 00:00:00 | 00:00:00 | |
| OE3JTB-15 | 2026-09-06 00:41:19 | 44.48552 | 21.25710 | 108° | 16km/h | 29082m | 8.3m/s | -45.9°C | 0% | 0hPa | 5.6V | 00:00:00 | 00:00:00 | 00:00:00 | |
| OE3JTB-15 | 2026-09-06 00:40:00 | 44.48592 | 21.25682 | 49° | 18km/h | 28539m | 6.2m/s | -45.5°C | 0% | 0hPa | 5.6V | 00:00:00 | 00:00:00 | 00:00:00 | |
| LZ4TU-5 | 2026-09-06 00:39:50 | 44.48607 | 21.25689 | 45° | 11km/h | 28477m | 5.4m/s | -46.4°C | 0.0% | 0hPa | 5.6V | 00:00:00 | 00:00:00 | 00:00:00 | |
| LZ4TU-5 | 2026-09-06 00:39:46 | 44.48609 | 21.25652 | 115° | 33km/h | 28449m | 5.4m/s | -46.6°C | 0.0% | 0hPa | 5.6V | 00:00:00 | 00:00:00 | 00:00:00 | |
| LZ4TU-5 | 2026-09-06 00:38:05 | 44.48677 | 21.25414 | 71° | 13km/h | 27775m | 7.4m/s | -47.6°C | 0.0% | 0hPa | 5.6V | 00:00:00 | 00:00:00 | 00:00:00 | |
| LZ4TU-5 | 2026-09-06 00:38:00 | 44.48670 | 21.25390 | 346° | 16km/h | 27740m | 6.7m/s | -47.6°C | 0.0% | 0hPa | 5.6V | 00:00:00 | 00:00:00 | 00:00:00 | |
| LZ4TU-5 | 2026-09-06 00:37:15 | 44.48531 | 21.25393 | 12° | 13km/h | 27440m | 5.1m/s | -47.2°C | 0.0% | 0hPa | 5.6V | 00:00:00 | 00:00:00 | 00:00:00 | |
| LZ4TU-5 | 2026-09-06 00:37:10 | 44.48517 | 21.25416 | 306° | 22km/h | 27405m | 7.3m/s | -47.3°C | 0.0% | 0hPa | 5.6V | 00:00:00 | 00:00:00 | 00:00:00 | |
| LZ4TU-5 | 2026-09-06 00:35:53 | 44.48444 | 21.25565 | 242° | 18km/h | 26875m | 7.2m/s | -47.5°C | 0.0% | 0hPa | 5.6V | 00:00:00 | 00:00:00 | 00:00:00 | |
| LZ4TU-5 | 2026-09-06 00:35:48 | 44.48447 | 21.25582 | 11° | 7km/h | 26848m | 8.2m/s | -47.3°C | 0.0% | 0hPa | 5.6V | 00:00:00 | 00:00:00 | 00:00:00 | |
| LZ4TU-5 | 2026-09-06 00:35:02 | 44.48403 | 21.25647 | 85° | 9km/h | 26544m | 6.2m/s | -47.8°C | 0.0% | 0hPa | 5.6V | 00:00:00 | 00:00:00 | 00:00:00 | |
| LZ4TU-5 | 2026-09-06 00:34:57 | 44.48406 | 21.25647 | 265° | 18km/h | 26513m | 5.5m/s | -47.7°C | 0.0% | 0hPa | 5.6V | 00:00:00 | 00:00:00 | 00:00:00 | |
| LZ4TU-5 | 2026-09-06 00:33:15 | 44.48379 | 21.25586 | 28° | 26km/h | 25882m | 5.0m/s | -49.6°C | 0.0% | 0hPa | 5.6V | 00:00:00 | 00:00:00 | 00:00:00 | |
| LZ4TU-5 | 2026-09-06 00:33:10 | 44.48368 | 21.25576 | 0° | 0km/h | 25859m | 6.5m/s | -49.7°C | 0.0% | 0hPa | 5.6V | 00:00:00 | 00:00:00 | 00:00:00 | |
| OE3JTB-15 | 2026-09-06 00:32:20 | 44.48320 | 21.25649 | 158° | 15km/h | 25554m | 6.8m/s | -52.2°C | 0% | 0hPa | 5.6V | 00:00:00 | 00:00:00 | 00:00:00 | |
| OE3JTB-15 | 2026-09-06 00:31:51 | 44.48328 | 21.25519 | 311° | 9km/h | 25366m | 7.4m/s | -52.5°C | 0% | 0hPa | 5.6V | 00:00:00 | 00:00:00 | 00:00:00 | |
| LZ4TU-5 | 2026-09-06 00:31:25 | 44.48353 | 21.25551 | 40° | 7km/h | 25200m | 6.6m/s | -52.5°C | 0.0% | 0hPa | 5.6V | 00:00:00 | 00:00:00 | 00:00:00 | |
| OE3JTB-15 | 2026-09-06 00:31:21 | 44.48353 | 21.25540 | 176° | 15km/h | 25175m | 5.6m/s | -51.7°C | 0% | 0hPa | 5.6V | 00:00:00 | 00:00:00 | 00:00:00 | |
| OE3JTB-15 | 2026-09-06 00:30:01 | 44.48404 | 21.25295 | 69° | 15km/h | 24642m | 6.9m/s | -50.8°C | 0% | 0hPa | 5.6V | 00:00:00 | 00:00:00 | 00:00:00 | |
| LZ4TU-5 | 2026-09-06 00:29:25 | 44.48330 | 21.25174 | 77° | 20km/h | 24415m | 5.9m/s | -51.6°C | 0.0% | 0hPa | 5.6V | 00:00:00 | 00:00:00 | 00:00:00 | |
| OE3JTB-15 | 2026-09-06 00:28:53 | 44.48281 | 21.25111 | 318° | 13km/h | 24207m | 5.8m/s | -50.8°C | 0% | 0hPa | 5.6V | 00:00:00 | 00:00:00 | 00:00:00 | |
| OE3JTB-15 | 2026-09-06 00:28:23 | 44.48303 | 21.25003 | 125° | 18km/h | 24021m | 5.1m/s | -51.8°C | 0% | 0hPa | 5.6V | 00:00:00 | 00:00:00 | 00:00:00 | |
| OE3JTB-15 | 2026-09-06 00:27:53 | 44.48313 | 21.24831 | 69° | 26km/h | 23850m | 5.9m/s | -52.4°C | 0% | 0hPa | 5.6V | 00:00:00 | 00:00:00 | 00:00:00 | |
| LZ4TU-5 | 2026-09-06 00:27:51 | 44.48313 | 21.24821 | 98° | 20km/h | 23837m | 7.0m/s | -53.2°C | 0.0% | 0hPa | 5.6V | 00:00:00 | 00:00:00 | 00:00:00 | |
| OE3JTB-15 | 2026-09-06 00:27:23 | 44.48355 | 21.24580 | 62° | 20km/h | 23667m | 6.4m/s | -54.1°C | 0% | 0hPa | 5.6V | 00:00:00 | 00:00:00 | 00:00:00 | |
| OE3JTB-15 | 2026-09-06 00:26:53 | 44.48254 | 21.24434 | 348° | 16km/h | 23488m | 6.1m/s | -54.2°C | 0% | 0hPa | 5.6V | 00:00:00 | 00:00:00 | 00:00:00 | |
| OE3JTB-15 | 2026-09-06 00:26:24 | 44.48149 | 21.24418 | 11° | 11km/h | 23322m | 5.2m/s | -54.3°C | 0% | 0hPa | 5.6V | 00:00:00 | 00:00:00 | 00:00:00 | |
| LZ4TU-5 | 2026-09-06 00:26:12 | 44.48131 | 21.24394 | 35° | 11km/h | 23249m | 7.2m/s | -54.8°C | 0.0% | 0hPa | 5.6V | 00:00:00 | 00:00:00 | 00:00:00 | |
| LZ4TU-5 | 2026-09-06 00:26:08 | 44.48119 | 21.24381 | 67° | 11km/h | 23225m | 6.0m/s | -54.7°C | 0.0% | 0hPa | 5.6V | 00:00:00 | 00:00:00 | 00:00:00 | |
| OE3JTB-15 | 2026-09-06 00:25:54 | 44.48113 | 21.24345 | 124° | 15km/h | 23137m | 7.0m/s | -53.7°C | 0% | 0hPa | 5.6V | 00:00:00 | 00:00:00 | 00:00:00 | |
| OE3JTB-15 | 2026-09-06 00:25:25 | 44.48165 | 21.24232 | 118° | 13km/h | 22958m | 5.6m/s | -53.2°C | 0% | 0hPa | 5.6V | 00:00:00 | 00:00:00 | 00:00:00 | |
| OE3JTB-15 | 2026-09-06 00:24:53 | 44.48165 | 21.24091 | 43° | 13km/h | 22756m | 6.9m/s | -52.7°C | 0% | 0hPa | 5.6V | 00:00:00 | 00:00:00 | 00:00:00 | |
| LZ4TU-5 | 2026-09-06 00:24:29 | 44.48160 | 21.24029 | 135° | 5km/h | 22627m | 6.4m/s | -54.7°C | 0.0% | 0hPa | 0V | 00:00:00 | 00:00:00 | 00:00:00 | |
| LZ4TU-5 | 2026-09-06 00:22:59 | 44.48085 | 21.23594 | 54° | 18km/h | 22095m | 4.9m/s | -55.2°C | 0.1% | 0hPa | 0V | 00:00:00 | 00:00:00 | 00:00:00 | |
| LZ4TU-5 | 2026-09-06 00:22:54 | 44.48079 | 21.23566 | 97° | 11km/h | 22065m | 5.6m/s | -55.1°C | 0.1% | 0hPa | 0V | 00:00:00 | 00:00:00 | 00:00:00 | |
| LZ4TU-5 | 2026-09-06 00:21:17 | 44.48193 | 21.23118 | 146° | 22km/h | 21498m | 4.9m/s | -55.1°C | 0.0% | 0hPa | 0V | 00:00:00 | 00:00:00 | 00:00:00 | |
| LZ4TU-5 | 2026-09-06 00:21:13 | 44.48208 | 21.23099 | 139° | 15km/h | 21472m | 6.2m/s | -55.2°C | 0.0% | 0hPa | 0V | 00:00:00 | 00:00:00 | 00:00:00 | |
| LZ4TU-5 | 2026-09-06 00:19:29 | 44.48386 | 21.22219 | 62° | 20km/h | 20848m | 6.2m/s | -56.0°C | 0.2% | 0hPa | 0V | 00:00:00 | 00:00:00 | 00:00:00 | |
| LZ4TU-5 | 2026-09-06 00:19:24 | 44.48382 | 21.22175 | 110° | 22km/h | 20819m | 5.7m/s | -55.8°C | 0.1% | 0hPa | 0V | 00:00:00 | 00:00:00 | 00:00:00 | |
| LZ4TU-5 | 2026-09-06 00:17:44 | 44.48442 | 21.21386 | 79° | 26km/h | 20263m | 6.7m/s | -56.7°C | 0.5% | 0hPa | 0V | 00:00:00 | 00:00:00 | 00:00:00 | |
| LZ4TU-5 | 2026-09-06 00:17:39 | 44.48448 | 21.21339 | 99° | 24km/h | 20234m | 4.5m/s | -56.6°C | 0.6% | 0hPa | 0V | 00:00:00 | 00:00:00 | 00:00:00 | |
| LZ4TU-5 | 2026-09-06 00:15:58 | 44.48334 | 21.20425 | 83° | 35km/h | 19658m | 5.6m/s | -55.4°C | 0.9% | 0hPa | 0V | 00:00:00 | 00:00:00 | 00:00:00 | |
| LZ4TU-5 | 2026-09-06 00:15:53 | 44.48327 | 21.20362 | 83° | 40km/h | 19631m | 5.1m/s | -55.3°C | 0.9% | 0hPa | 0V | 00:00:00 | 00:00:00 | 00:00:00 | |
| LZ4TU-5 | 2026-09-06 00:14:01 | 44.48175 | 21.19193 | 124° | 27km/h | 19026m | 6.1m/s | -57.2°C | 0.8% | 0hPa | 0V | 00:00:00 | 00:00:00 | 00:00:00 | |
| LZ4TU-5 | 2026-09-06 00:13:57 | 44.48185 | 21.19155 | 115° | 22km/h | 19005m | 5.6m/s | -57.5°C | 0.9% | 0hPa | 0V | 00:00:00 | 00:00:00 | 00:00:00 | |
| LZ4TU-5 | 2026-09-06 00:12:17 | 44.48155 | 21.18081 | 100° | 22km/h | 18466m | 7.0m/s | -56.8°C | 1.5% | 0hPa | 0V | 00:00:00 | 00:00:00 | 00:00:00 | |
| LZ4TU-5 | 2026-09-06 00:10:37 | 44.48545 | 21.16717 | 121° | 53km/h | 17939m | 4.6m/s | -58.7°C | 2.2% | 0hPa | 0V | 00:00:00 | 00:00:00 | 00:00:00 | |
| LZ4TU-5 | 2026-09-06 00:10:33 | 44.48560 | 21.16654 | 102° | 46km/h | 17919m | 5.0m/s | -58.6°C | 2.2% | 0hPa | 0V | 00:00:00 | 00:00:00 | 00:00:00 | |
| LZ4TU-5 | 2026-09-06 00:10:23 | 44.48599 | 21.16484 | 105° | 53km/h | 17869m | 4.4m/s | -58.7°C | 2.2% | 0hPa | 0V | 00:00:00 | 00:00:00 | 00:00:00 | |
| LZ4TU-5 | 2026-09-06 00:10:19 | 44.48613 | 21.16418 | 106° | 46km/h | 17850m | 5.6m/s | -58.9°C | 0% | 0hPa | 0V | 00:00:00 | 00:00:00 | 00:00:00 | |
| LZ4TU-5 | 2026-09-06 00:10:14 | 44.48632 | 21.16332 | 112° | 60km/h | 17825m | 5.9m/s | -59.1°C | 2.4% | 0hPa | 0V | 00:00:00 | 00:00:00 | 00:00:00 | |
| LZ4TU-5 | 2026-09-06 00:10:09 | 44.48659 | 21.16232 | 109° | 57km/h | 17798m | 6.1m/s | -59.4°C | 2.6% | 0hPa | 0V | 00:00:00 | 00:00:00 | 00:00:00 | |
| LZ4TU-5 | 2026-09-06 00:08:26 | 44.48719 | 21.14475 | 98° | 47km/h | 17258m | 4.3m/s | -58.5°C | 3.8% | 0hPa | 0V | 00:00:00 | 00:00:00 | 00:00:00 | |
| LZ4TU-5 | 2026-09-06 00:08:22 | 44.48728 | 21.14419 | 104° | 38km/h | 17238m | 5.4m/s | -58.4°C | 3.9% | 0hPa | 0V | 00:00:00 | 00:00:00 | 00:00:00 | |
| LZ4TU-5 | 2026-09-06 00:06:42 | 44.49408 | 21.12643 | 112° | 68km/h | 16730m | 4.8m/s | -60.2°C | 4.7% | 0hPa | 0V | 00:00:00 | 00:00:00 | 00:00:00 | |
| LZ4TU-5 | 2026-09-06 00:06:38 | 44.49437 | 21.12545 | 121° | 80km/h | 16711m | 5.3m/s | -60.7°C | 4.8% | 0hPa | 0V | 00:00:00 | 00:00:00 | 00:00:00 | |
| LZ4TU-5 | 2026-09-06 00:04:57 | 44.50069 | 21.09744 | 108° | 93km/h | 16176m | 4.9m/s | -61.2°C | 6.0% | 0hPa | 0V | 00:00:00 | 00:00:00 | 00:00:00 | |
| LZ4TU-5 | 2026-09-06 00:04:52 | 44.50105 | 21.09599 | 112° | 78km/h | 16149m | 4.4m/s | -61.1°C | 6.0% | 0hPa | 0V | 00:00:00 | 00:00:00 | 00:00:00 | |
| LZ4TU-5 | 2026-09-06 00:03:19 | 44.50564 | 21.06728 | 88° | 91km/h | 15648m | 4.7m/s | -60.9°C | 7.7% | 0hPa | 0V | 00:00:00 | 00:00:00 | 00:00:00 | |
| LZ4TU-5 | 2026-09-06 00:03:15 | 44.50560 | 21.06560 | 89° | 91km/h | 15625m | 4.4m/s | -60.7°C | 7.8% | 0hPa | 0V | 00:00:00 | 00:00:00 | 00:00:00 | |
| LZ4TU-5 | 2026-09-06 00:01:37 | 44.50657 | 21.03716 | 101° | 80km/h | 15154m | 4.8m/s | -60.5°C | 12.5% | 0hPa | 0V | 00:00:00 | 00:00:00 | 00:00:00 | |
| LZ4TU-5 | 2026-09-06 00:01:34 | 44.50668 | 21.03568 | 97° | 82km/h | 15127m | 5.3m/s | -60.3°C | 12.8% | 0hPa | 0V | 00:00:00 | 00:00:00 | 00:00:00 | |
| LZ4TU-5 | 2026-09-05 23:59:40 | 44.51575 | 21.00508 | 118° | 97km/h | 14576m | 4.8m/s | -61.7°C | 25.0% | 0hPa | 0V | 00:00:00 | 00:00:00 | 00:00:00 | |
| LZ4TU-5 | 2026-09-05 23:59:35 | 44.51618 | 21.00351 | 110° | 97km/h | 14551m | 5.0m/s | -61.6°C | 25.3% | 0hPa | 0V | 00:00:00 | 00:00:00 | 00:00:00 | |
| LZ4TU-5 | 2026-09-05 23:57:50 | 44.52365 | 20.96613 | 94° | 100km/h | 14040m | 5.2m/s | -66.0°C | 26.1% | 0hPa | 0V | 00:00:00 | 00:00:00 | 00:00:00 | |
| LZ4TU-5 | 2026-09-05 23:56:06 | 44.52465 | 20.93307 | 97° | 77km/h | 13473m | 4.6m/s | -62.0°C | 22.0% | 0hPa | 0V | 00:00:00 | 00:00:00 | 00:00:00 | |
| LZ4TU-5 | 2026-09-05 23:56:01 | 44.52473 | 20.93177 | 98° | 69km/h | 13448m | 4.4m/s | -61.8°C | 21.8% | 0hPa | 0V | 00:00:00 | 00:00:00 | 00:00:00 | |
| LZ4TU-5 | 2026-09-05 23:54:18 | 44.53255 | 20.90681 | 128° | 95km/h | 12835m | 4.5m/s | -58.0°C | 21.4% | 0hPa | 0V | 00:00:00 | 00:00:00 | 00:00:00 | |
| LZ4TU-5 | 2026-09-05 23:54:14 | 44.53318 | 20.90594 | 136° | 86km/h | 12813m | 4.3m/s | -57.8°C | 21.6% | 0hPa | 0V | 00:00:00 | 00:00:00 | 00:00:00 | |
| LZ4TU-5 | 2026-09-05 23:52:34 | 44.55017 | 20.87347 | 130° | 113km/h | 12299m | 4.0m/s | -55.8°C | 30.8% | 0hPa | 0V | 00:00:00 | 00:00:00 | 00:00:00 | |
| LZ4TU-5 | 2026-09-05 23:52:29 | 44.55106 | 20.87188 | 127° | 111km/h | 12277m | 4.0m/s | -55.8°C | 30.9% | 0hPa | 0V | 00:00:00 | 00:00:00 | 00:00:00 | |
| LZ4TU-5 | 2026-09-05 23:50:43 | 44.56881 | 20.83791 | 129° | 108km/h | 11785m | 4.1m/s | -54.4°C | 38.9% | 0hPa | 0V | 00:00:00 | 00:00:00 | 00:00:00 | |
| LZ4TU-5 | 2026-09-05 23:50:39 | 44.56949 | 20.83667 | 126° | 113km/h | 11763m | 6.2m/s | -54.4°C | 39.5% | 0hPa | 0V | 00:00:00 | 00:00:00 | 00:00:00 | |
| LZ4TU-5 | 2026-09-05 23:48:56 | 44.58492 | 20.80586 | 130° | 102km/h | 11251m | 3.7m/s | -50.8°C | 40.6% | 0hPa | 0V | 00:00:00 | 00:00:00 | 00:00:00 | |
| LZ4TU-5 | 2026-09-05 23:48:51 | 44.58569 | 20.80432 | 127° | 104km/h | 11227m | 4.6m/s | -50.6°C | 40.2% | 0hPa | 0V | 00:00:00 | 00:00:00 | 00:00:00 | |
| LZ4TU-5 | 2026-09-05 23:47:07 | 44.60190 | 20.77434 | 127° | 110km/h | 10739m | 5.1m/s | -46.1°C | 29.7% | 0hPa | 0V | 00:00:00 | 00:00:00 | 00:00:00 | |
| LZ4TU-5 | 2026-09-05 23:45:32 | 44.61686 | 20.74766 | 122° | 106km/h | 10278m | 6.7m/s | -41.9°C | 20.8% | 0hPa | 0V | 00:00:00 | 00:00:00 | 00:00:00 | |
| LZ4TU-5 | 2026-09-05 23:45:27 | 44.61755 | 20.74629 | 130° | 104km/h | 10246m | 5.3m/s | -41.7°C | 20.6% | 0hPa | 0V | 00:00:00 | 00:00:00 | 00:00:00 | |
| LZ4TU-5 | 2026-09-05 23:44:00 | 44.63084 | 20.72136 | 130° | 97km/h | 9851m | 3.0m/s | -38.4°C | 20.2% | 0hPa | 0V | 00:00:00 | 00:00:00 | 00:00:00 | |
| LZ4TU-5 | 2026-09-05 23:43:55 | 44.63158 | 20.71998 | 131° | 104km/h | 9823m | 4.9m/s | -38.2°C | 20.2% | 0hPa | 0V | 00:00:00 | 00:00:00 | 00:00:00 | |
| LZ4TU-5 | 2026-09-05 23:42:29 | 44.64596 | 20.69627 | 128° | 95km/h | 9391m | 3.5m/s | -34.7°C | 18.8% | 0hPa | 0V | 00:00:00 | 00:00:00 | 00:00:00 | |
| LZ4TU-5 | 2026-09-05 23:40:58 | 44.66103 | 20.67257 | 130° | 117km/h | 8875m | 3.4m/s | -30.8°C | 22.0% | 0hPa | 0V | 00:00:00 | 00:00:00 | 00:00:00 | |
| LZ4TU-5 | 2026-09-05 23:40:52 | 44.66171 | 20.67128 | 129° | 60km/h | 8843m | 6.7m/s | -30.5°C | 22.0% | 0hPa | 0V | 00:00:00 | 00:00:00 | 00:00:00 | |
| LZ4TU-5 | 2026-09-05 23:39:33 | 44.67234 | 20.65379 | 124° | 53km/h | 8355m | 5.5m/s | -26.2°C | 20.6% | 0hPa | 0V | 00:00:00 | 00:00:00 | 00:00:00 | |
| LZ4TU-5 | 2026-09-05 23:39:29 | 44.67290 | 20.65311 | 134° | 99km/h | 8333m | 5.6m/s | -26.0°C | 20.5% | 0hPa | 0V | 00:00:00 | 00:00:00 | 00:00:00 | |
| LZ4TU-5 | 2026-09-05 23:38:09 | 44.68062 | 20.63437 | 127° | 99km/h | 7904m | 2.4m/s | -22.2°C | 20.4% | 0hPa | 0V | 00:00:00 | 00:00:00 | 00:00:00 | |
| LZ4TU-5 | 2026-09-05 23:38:04 | 44.68096 | 20.63297 | 96° | 66km/h | 7873m | 7.8m/s | -21.9°C | 20.2% | 0hPa | 0V | 00:00:00 | 00:00:00 | 00:00:00 | |
| LZ4TU-5 | 2026-09-05 23:36:35 | 44.68798 | 20.60880 | 114° | 108km/h | 7382m | 4.4m/s | -18.1°C | 22.8% | 0hPa | 0V | 00:00:00 | 00:00:00 | 00:00:00 | |
| LZ4TU-5 | 2026-09-05 23:36:30 | 44.68852 | 20.60716 | 121° | 86km/h | 7357m | 7.9m/s | -18.0°C | 23.0% | 0hPa | 0V | 00:00:00 | 00:00:00 | 00:00:00 | |
| LZ4TU-5 | 2026-09-05 23:35:15 | 44.69640 | 20.58598 | 124° | 86km/h | 6966m | 5.4m/s | -16.4°C | 35.5% | 0hPa | 0V | 00:00:00 | 00:00:00 | 00:00:00 | |
| LZ4TU-5 | 2026-09-05 23:35:10 | 44.69687 | 20.58477 | 121° | 80km/h | 6938m | 7.2m/s | -16.2°C | 35.3% | 0hPa | 0V | 00:00:00 | 00:00:00 | 00:00:00 | |
| LZ4TU-5 | 2026-09-05 23:33:57 | 44.70289 | 20.56804 | 111° | 78km/h | 6560m | 5.7m/s | -13.3°C | 20.6% | 0hPa | 0V | 00:00:00 | 00:00:00 | 00:00:00 | |
| LZ4TU-5 | 2026-09-05 23:33:53 | 44.70310 | 20.56727 | 125° | 49km/h | 6531m | 5.9m/s | -13.1°C | 15.8% | 0hPa | 0V | 00:00:00 | 00:00:00 | 00:00:00 | |
| LZ4TU-5 | 2026-09-05 23:33:48 | 44.70368 | 20.56612 | 120° | 97km/h | 6505m | 4.6m/s | -13.0°C | 9.5% | 0hPa | 0V | 00:00:00 | 00:00:00 | 00:00:00 | |
| LZ4TU-5 | 2026-09-05 23:33:41 | 44.70418 | 20.56468 | 114° | 62km/h | 6473m | 4.2m/s | -12.8°C | 8.4% | 0hPa | 0V | 00:00:00 | 00:00:00 | 00:00:00 | |
| LZ4TU-5 | 2026-09-05 23:33:34 | 44.70475 | 20.56294 | 121° | 58km/h | 6434m | 6.9m/s | -12.6°C | 7.4% | 0hPa | 0V | 00:00:00 | 00:00:00 | 00:00:00 | |
| LZ4TU-5 | 2026-09-05 23:32:01 | 44.71118 | 20.54349 | 104° | 84km/h | 5960m | 3.7m/s | -9.2°C | 7.5% | 0hPa | 0V | 00:00:00 | 00:00:00 | 00:00:00 | |
| LZ4TU-5 | 2026-09-05 23:31:57 | 44.71140 | 20.54252 | 121° | 53km/h | 5938m | 5.8m/s | -9.1°C | 7.9% | 0hPa | 0V | 00:00:00 | 00:00:00 | 00:00:00 |